Time;durP1;ratioP1;P1;durP2;ratioP2;P2;SDS_P1;SDS_P2;PMS_P1;PMS_P2;Temp;Humidity;BMP_temperature;BMP_pressure;BME280_temperature;BME280_humidity;BME280_pressure;Samples;Min_cycle;Max_cycle;Signal;HPM_P1;HPM_P2
2023/06/16 00:01:31;;;;;;;8.10;4.20;;;;;;;14.61;69.90;100806.34;5016203;28;20482;-72
2023/06/16 00:04:35;;;;;;;7.13;4.03;;;;;;;14.46;70.28;100796.75;5016373;28;20564;-72
2023/06/16 00:07:39;;;;;;;8.60;3.75;;;;;;;14.30;70.88;100793.41;5016531;28;20044;-72
2023/06/16 00:10:43;;;;;;;7.70;3.67;;;;;;;14.36;70.80;100791.25;5016372;28;20049;-72
2023/06/16 00:13:48;;;;;;;7.40;3.80;;;;;;;14.21;71.32;100789.56;5015965;28;20478;-72
2023/06/16 00:16:52;;;;;;;8.30;3.78;;;;;;;14.16;70.93;100795.13;5016121;28;20049;-72
2023/06/16 00:19:59;;;;;;;8.77;3.90;;;;;;;14.13;70.59;100792.66;5015916;28;20049;-72
2023/06/16 00:23:06;;;;;;;10.70;3.80;;;;;;;14.06;71.45;100791.38;5016222;28;20053;-71
2023/06/16 00:26:12;;;;;;;8.43;3.95;;;;;;;14.08;71.62;100796.56;5015843;28;20061;-71
2023/06/16 00:29:20;;;;;;;12.13;4.40;;;;;;;13.96;71.95;100803.41;5014214;28;20104;-72
2023/06/16 00:32:23;;;;;;;7.47;4.07;;;;;;;13.92;71.80;100801.91;5015790;28;20561;-72
2023/06/16 00:35:27;;;;;;;8.75;3.90;;;;;;;13.99;71.49;100803.22;5002970;28;20120;-72
2023/06/16 00:38:30;;;;;;;7.85;4.28;;;;;;;13.89;72.08;100799.47;5015277;28;20116;-72
2023/06/16 00:41:33;;;;;;;5.75;3.65;;;;;;;13.75;72.44;100802.09;5015396;28;20072;-71
2023/06/16 00:44:37;;;;;;;10.10;4.13;;;;;;;13.70;72.72;100803.22;5015315;28;20518;-72
2023/06/16 00:47:40;;;;;;;10.18;4.15;;;;;;;13.75;72.61;100799.47;5002951;28;20104;-72
2023/06/16 00:50:44;;;;;;;4.28;3.53;;;;;;;13.75;72.50;100799.47;5003231;28;20060;-72
2023/06/16 00:53:47;;;;;;;7.53;4.07;;;;;;;13.73;72.72;100796.94;5015420;28;20048;-72
2023/06/16 00:56:51;;;;;;;8.40;3.65;;;;;;;13.65;73.04;100802.66;5002614;28;20052;-72
2023/06/16 00:59:55;;;;;;;7.72;3.75;;;;;;;13.61;73.22;100797.69;5003290;28;20072;-72
2023/06/16 01:02:58;;;;;;;7.20;3.47;;;;;;;13.57;73.26;100799.66;5002310;28;20474;-72
2023/06/16 01:06:09;;;;;;;4.90;3.63;;;;;;;13.44;73.79;100796.94;5002704;28;20048;-72
2023/06/16 01:09:43;;;;;;;8.50;4.43;;;;;;;13.39;73.89;100800.75;5014512;28;20091;-72
2023/06/16 01:13:02;;;;;;;6.18;4.00;;;;;;;13.42;73.83;100798.78;5014365;28;20120;-72
2023/06/16 01:16:08;;;;;;;6.95;4.05;;;;;;;13.48;73.68;100805.47;5015002;28;20049;-72
2023/06/16 01:19:22;;;;;;;5.32;4.07;;;;;;;13.52;73.52;100806.13;5002873;28;20121;-72
2023/06/16 01:22:31;;;;;;;10.40;3.90;;;;;;;13.40;73.81;100797.19;4991320;28;20087;-72
2023/06/16 01:25:38;;;;;;;8.88;3.47;;;;;;;13.24;74.51;100806.00;5002701;28;20049;-72
2023/06/16 01:28:45;;;;;;;11.65;3.83;;;;;;;13.30;74.43;100803.91;5002500;28;20056;-72
2023/06/16 01:31:52;;;;;;;7.45;4.32;;;;;;;13.29;74.28;100802.25;5014700;28;20407;-72
2023/06/16 01:34:57;;;;;;;5.45;3.67;;;;;;;13.21;74.24;100798.25;5001752;28;20092;-72
2023/06/16 01:38:01;;;;;;;5.45;3.95;;;;;;;13.11;74.56;100794.47;5002729;28;20569;-72
2023/06/16 01:41:05;;;;;;;8.00;4.18;;;;;;;13.15;74.45;100796.00;5002456;28;20088;-72
2023/06/16 01:44:09;;;;;;;6.70;3.60;;;;;;;12.96;74.85;100803.25;5002409;28;20160;-72
2023/06/16 01:47:16;;;;;;;6.70;4.28;;;;;;;12.92;75.15;100791.22;5014324;28;20084;-72
2023/06/16 01:50:21;;;;;;;5.95;3.85;;;;;;;12.89;74.93;100799.28;5002131;28;20575;-72
2023/06/16 01:53:24;;;;;;;8.95;3.88;;;;;;;12.92;75.02;100792.09;5014244;28;20115;-72
2023/06/16 01:56:34;;;;;;;6.78;4.07;;;;;;;12.92;74.97;100789.47;5014316;28;20071;-72
2023/06/16 01:59:38;;;;;;;8.55;3.88;;;;;;;12.98;75.23;100783.84;5001966;28;20096;-72
2023/06/16 02:02:49;;;;;;;8.32;3.85;;;;;;;13.00;74.93;100791.63;5014222;28;20131;-72
2023/06/16 02:05:59;;;;;;;6.25;4.03;;;;;;;13.04;74.71;100793.13;5001659;28;20406;-72
2023/06/16 02:09:05;;;;;;;9.65;4.07;;;;;;;13.01;74.41;100788.06;5012348;28;20065;-72
2023/06/16 02:12:11;;;;;;;7.22;3.45;;;;;;;12.91;74.58;100793.00;5011697;28;20053;-72
2023/06/16 02:15:19;;;;;;;6.88;3.97;;;;;;;13.04;73.98;100788.72;5012852;28;20053;-72
2023/06/16 02:18:27;;;;;;;10.43;4.05;;;;;;;13.12;73.08;100788.28;5000717;28;20514;-72
2023/06/16 02:21:37;;;;;;;6.78;4.05;;;;;;;12.80;74.96;100791.00;5013305;28;20057;-72
2023/06/16 02:24:40;;;;;;;5.80;3.78;;;;;;;12.71;75.61;100790.69;5013704;28;20053;-72
2023/06/16 02:27:44;;;;;;;6.90;4.00;;;;;;;12.89;74.79;100791.41;5013669;28;20057;-72
2023/06/16 02:30:47;;;;;;;5.78;3.97;;;;;;;13.13;73.30;100791.75;5001256;28;20053;-72
2023/06/16 02:33:51;;;;;;;11.38;4.32;;;;;;;12.98;73.67;100794.31;5001049;28;20072;-72
2023/06/16 02:36:54;;;;;;;;;;;;;;;12.72;74.93;100801.09;5000964;28;20120;-72
2023/06/16 02:40:00;;;;;;;7.82;4.60;;;;;;;12.65;75.09;100799.75;5001256;28;19921;-72
2023/06/16 02:43:05;;;;;;;6.32;4.13;;;;;;;12.59;75.70;100794.84;5001267;28;20103;-72
2023/06/16 02:46:08;;;;;;;10.65;4.43;;;;;;;12.56;75.98;100792.38;5001240;28;20531;-72
2023/06/16 02:49:12;;;;;;;6.18;4.13;;;;;;;12.56;75.90;100795.84;5001041;28;20511;-72
2023/06/16 02:52:16;;;;;;;6.50;4.20;;;;;;;12.49;76.07;100797.13;5012865;28;20049;-72
2023/06/16 02:55:21;;;;;;;8.77;3.60;;;;;;;12.37;76.46;100796.97;5012221;28;20423;-72
2023/06/16 02:58:30;;;;;;;7.07;4.82;;;;;;;12.34;76.52;100800.59;5000959;28;20049;-71
2023/06/16 03:01:33;;;;;;;6.13;4.20;;;;;;;12.26;76.01;100801.03;5000885;28;20041;-72
2023/06/16 03:04:45;;;;;;;6.65;3.90;;;;;;;12.33;76.24;100805.00;4993113;28;20095;-72
2023/06/16 03:07:56;;;;;;;9.25;4.47;;;;;;;12.30;76.13;100804.34;4987839;28;20045;-72
2023/06/16 03:11:00;;;;;;;10.75;4.70;;;;;;;12.27;76.23;100809.75;4991307;28;20514;-72
2023/06/16 03:14:09;;;;;;;7.70;3.85;;;;;;;12.22;76.71;100814.38;4987900;28;20614;-72
2023/06/16 03:17:13;;;;;;;6.55;3.92;;;;;;;12.09;76.99;100815.06;5001160;28;20049;-72
2023/06/16 03:20:17;;;;;;;7.05;4.07;;;;;;;12.18;76.65;100818.94;4990310;28;20096;-72
2023/06/16 03:23:32;;;;;;;6.15;3.70;;;;;;;12.06;76.64;100814.38;4988918;28;20123;-72
2023/06/16 03:26:36;;;;;;;5.15;3.70;;;;;;;11.96;76.61;100813.16;5001871;28;20049;-72
2023/06/16 03:29:50;;;;;;;9.10;4.35;;;;;;;11.99;76.47;100815.63;4988136;28;20521;-72
2023/06/16 03:32:54;;;;;;;;;;;;;;;11.95;76.78;100819.34;4989437;28;20096;-72
2023/06/16 03:35:58;;;;;;;8.70;4.25;;;;;;;11.90;77.30;100818.72;4990445;28;19924;-72
2023/06/16 03:39:12;;;;;;;7.22;3.72;;;;;;;11.81;77.51;100810.41;4989017;28;20092;-72
2023/06/16 03:42:18;;;;;;;7.85;4.80;;;;;;;11.79;77.68;100817.50;4990244;28;20068;-72
2023/06/16 03:45:21;;;;;;;10.55;5.10;;;;;;;12.00;77.10;100818.19;5003177;28;20065;-72
2023/06/16 03:48:51;;;;;;;6.93;4.35;;;;;;;11.93;77.32;100815.94;4985994;28;20077;-72
2023/06/16 03:51:54;;;;;;;7.55;4.00;;;;;;;11.96;76.96;100813.16;4998875;28;20097;-71
2023/06/16 03:54:59;;;;;;;8.68;4.53;;;;;;;11.87;77.46;100819.78;4981746;28;20517;-73
2023/06/16 03:58:06;;;;;;;6.63;3.50;;;;;;;11.88;77.42;100820.63;4987279;28;20057;-72
2023/06/16 04:01:10;;;;;;;5.20;3.95;;;;;;;11.90;77.32;100819.59;5000857;28;20096;-74
2023/06/16 04:04:14;;;;;;;5.40;4.28;;;;;;;12.14;76.27;100822.66;4990714;28;20553;-72
2023/06/16 04:07:18;;;;;;;7.25;3.72;;;;;;;12.17;75.94;100826.91;4987044;28;20041;-72
2023/06/16 04:10:25;;;;;;;8.25;4.30;;;;;;;12.09;76.31;100830.81;4988781;28;20084;-74
2023/06/16 04:13:30;;;;;;;6.47;3.97;;;;;;;12.01;76.78;100837.38;4968952;28;20058;-73
2023/06/16 04:16:37;;;;;;;6.10;4.60;;;;;;;11.84;77.73;100833.00;4962606;28;20042;-72
2023/06/16 04:19:41;;;;;;;6.15;3.85;;;;;;;12.11;76.46;100835.94;4962610;28;20061;-73
2023/06/16 04:22:45;;;;;;;6.68;4.30;;;;;;;11.93;77.12;100835.13;4961326;28;20170;-73
2023/06/16 04:25:48;;;;;;;;;;;;;;;12.12;76.58;100832.38;4962263;28;20485;-73
2023/06/16 04:28:53;;;;;;;5.75;3.88;;;;;;;12.13;76.29;100835.88;4963436;28;20029;-73
2023/06/16 04:32:00;;;;;;;9.10;4.82;;;;;;;12.09;77.44;100835.16;4959171;28;20405;-73
2023/06/16 04:35:06;;;;;;;6.75;3.95;;;;;;;12.12;77.02;100840.25;4956781;28;20058;-73
2023/06/16 04:38:09;;;;;;;11.13;4.45;;;;;;;12.34;77.55;100837.31;4956449;28;20227;-78
2023/06/16 04:41:13;;;;;;;7.95;4.28;;;;;;;12.60;75.99;100835.88;4971886;28;20081;-76
2023/06/16 04:44:17;;;;;;;14.02;4.55;;;;;;;12.76;74.48;100836.72;4974597;28;20046;-77
2023/06/16 04:47:22;;;;;;;7.70;4.22;;;;;;;12.79;73.74;100827.81;4964912;28;20190;-78
2023/06/16 04:50:27;;;;;;;6.82;4.22;;;;;;;12.81;73.58;100825.97;4975591;28;20053;-75
2023/06/16 04:53:30;;;;;;;6.60;4.70;;;;;;;12.83;73.68;100820.63;4976384;28;20531;-76
2023/06/16 04:56:35;;;;;;;9.88;4.30;;;;;;;12.84;74.06;100820.53;4975464;28;20176;-76
2023/06/16 04:59:38;;;;;;;;;;;;;;;12.96;73.71;100821.63;4975922;28;20041;-75
2023/06/16 05:02:42;;;;;;;8.13;4.28;;;;;;;13.11;73.33;100819.88;4975572;28;20008;-73
2023/06/16 05:05:45;;;;;;;8.98;3.70;;;;;;;13.15;73.01;100811.75;4966630;28;20050;-74
2023/06/16 05:08:49;;;;;;;;;;;;;;;13.31;72.97;100808.25;4956865;29;20102;-76
2023/06/16 05:11:53;;;;;;;8.88;4.00;;;;;;;13.18;73.16;100808.94;4955074;29;20025;-74
2023/06/16 05:14:57;;;;;;;5.90;4.07;;;;;;;13.33;72.80;100804.59;4954770;29;20110;-75
2023/06/16 05:18:00;;;;;;;10.48;4.05;;;;;;;13.38;72.77;100812.22;4956251;29;20132;-75
2023/06/16 05:21:04;;;;;;;6.82;3.67;;;;;;;13.54;75.21;100807.72;4955372;29;20620;-75
2023/06/16 05:24:07;;;;;;;9.05;5.07;;;;;;;13.68;78.05;100802.47;4955287;29;20055;-73
2023/06/16 05:27:11;;;;;;;5.82;4.13;;;;;;;13.74;72.85;100809.13;4956219;29;20058;-71
2023/06/16 05:30:14;;;;;;;6.18;4.03;;;;;;;13.62;72.20;100807.25;4955282;29;20050;-71
2023/06/16 05:33:18;;;;;;;10.02;3.92;;;;;;;13.55;72.39;100809.41;4956434;29;20135;-72
2023/06/16 05:36:24;;;;;;;5.75;3.92;;;;;;;13.54;72.27;100809.50;4955386;29;20105;-72
2023/06/16 05:39:27;;;;;;;8.05;4.40;;;;;;;13.56;72.70;100813.75;4955374;29;20050;-74
2023/06/16 05:42:33;;;;;;;8.63;4.25;;;;;;;13.46;72.69;100808.19;4956205;29;20055;-74
2023/06/16 05:45:37;;;;;;;8.65;4.38;;;;;;;13.49;73.22;100813.25;4955188;29;20122;-73
2023/06/16 05:48:42;;;;;;;5.97;3.83;;;;;;;13.63;73.17;100806.34;4953425;28;20148;-71
2023/06/16 05:51:47;;;;;;;10.13;4.10;;;;;;;13.71;73.14;100804.06;4955009;29;20405;-72
2023/06/16 05:55:02;;;;;;;;;;;;;;;13.72;73.24;100801.38;4955146;29;20050;-71
2023/06/16 05:58:27;;;;;;;5.20;3.45;;;;;;;13.81;73.92;100805.19;4954667;29;19961;-72
2023/06/16 06:01:35;;;;;;;6.85;3.80;;;;;;;13.93;73.09;100814.97;4954989;29;20043;-72
2023/06/16 06:04:40;;;;;;;6.88;3.60;;;;;;;14.13;72.54;100810.25;4954807;29;20547;-72
2023/06/16 06:07:45;;;;;;;7.22;3.83;;;;;;;14.29;72.66;100813.59;4955567;29;20057;-72
2023/06/16 06:10:49;;;;;;;8.10;4.57;;;;;;;14.36;71.79;100814.91;4954522;29;20054;-72
2023/06/16 06:13:52;;;;;;;;;;;;;;;14.47;71.66;100810.75;4987343;28;20053;-73
2023/06/16 06:16:56;;;;;;;6.50;3.75;;;;;;;14.55;71.08;100813.75;4982024;28;20008;-71
2023/06/16 06:20:00;;;;;;;7.72;4.40;;;;;;;14.68;71.23;100811.16;4982118;28;20041;-71
2023/06/16 06:23:04;;;;;;;6.63;4.40;;;;;;;14.79;70.78;100811.34;4994121;28;20100;-71
2023/06/16 06:26:07;;;;;;;6.95;4.63;;;;;;;14.93;69.89;100811.25;4982062;28;20069;-71
2023/06/16 06:29:11;;;;;;;7.40;4.07;;;;;;;15.05;69.34;100823.63;4993683;28;20049;-71
2023/06/16 06:32:14;;;;;;;5.80;4.13;;;;;;;15.17;69.27;100818.50;4981579;28;20117;-71
2023/06/16 06:35:18;;;;;;;7.55;4.32;;;;;;;15.31;69.05;100827.13;4981558;28;20101;-72
2023/06/16 06:38:22;;;;;;;7.90;4.45;;;;;;;15.45;68.62;100822.75;4981583;28;20046;-72
2023/06/16 06:41:26;;;;;;;9.90;3.95;;;;;;;15.51;67.86;100828.44;4981458;28;20093;-72
2023/06/16 06:44:39;;;;;;;6.13;3.90;;;;;;;15.62;68.30;100834.78;4981821;28;20136;-71
2023/06/16 06:47:44;;;;;;;6.35;3.83;;;;;;;15.76;67.64;100837.31;4979736;28;20065;-71
2023/06/16 06:50:49;;;;;;;9.68;4.07;;;;;;;15.94;66.94;100835.22;4979760;28;20061;-72
2023/06/16 06:53:52;;;;;;;8.30;4.43;;;;;;;16.07;66.55;100843.13;4992978;28;20100;-72
2023/06/16 06:56:55;;;;;;;6.22;3.47;;;;;;;16.20;65.38;100833.38;4993805;28;20057;-72
2023/06/16 06:59:58;;;;;;;;;;;;;;;16.34;65.16;100841.16;4993080;28;20065;-72
2023/06/16 07:03:01;;;;;;;5.80;3.53;;;;;;;16.40;65.79;100838.09;4993382;28;20474;-71
2023/06/16 07:06:05;;;;;;;5.28;3.58;;;;;;;16.47;65.06;100836.69;4993634;28;20463;-72
2023/06/16 07:09:09;;;;;;;9.25;4.40;;;;;;;16.58;62.03;100841.19;4993533;28;20048;-70
2023/06/16 07:12:12;;;;;;;6.47;3.53;;;;;;;16.73;61.24;100832.16;4991637;28;20478;-71
2023/06/16 07:15:16;;;;;;;5.50;3.60;;;;;;;16.83;60.35;100829.72;4993342;28;20570;-72
2023/06/16 07:18:20;;;;;;;7.00;3.40;;;;;;;16.99;59.86;100839.16;4981350;28;20515;-72
2023/06/16 07:21:25;;;;;;;12.50;3.88;;;;;;;17.05;59.93;100834.25;4993380;28;20455;-72
2023/06/16 07:24:28;;;;;;;7.35;4.15;;;;;;;17.16;59.65;100830.81;4993147;28;20053;-71
2023/06/16 07:27:31;;;;;;;7.10;4.35;;;;;;;17.41;59.71;100833.28;4992978;28;20133;-71
2023/06/16 07:30:35;;;;;;;8.88;3.72;;;;;;;17.54;57.85;100835.00;4993207;28;20104;-70
2023/06/16 07:33:38;;;;;;;6.30;3.92;;;;;;;17.63;58.17;100839.56;4993422;28;20196;-71
2023/06/16 07:36:42;;;;;;;5.78;3.47;;;;;;;17.72;57.95;100833.56;4980757;28;20081;-71
2023/06/16 07:39:48;;;;;;;5.72;3.30;;;;;;;17.96;55.46;100825.56;4993018;28;20065;-72
2023/06/16 07:42:51;;;;;;;4.35;3.00;;;;;;;18.04;51.49;100824.97;4993281;28;20104;-71
2023/06/16 07:46:01;;;;;;;7.80;3.47;;;;;;;18.22;51.11;100831.47;4993103;28;20049;-72
2023/06/16 07:49:05;;;;;;;5.00;3.42;;;;;;;18.32;48.79;100827.09;4993001;28;20048;-71
2023/06/16 07:52:13;;;;;;;5.35;3.00;;;;;;;18.40;48.84;100830.94;4992951;28;20459;-71
2023/06/16 07:55:17;;;;;;;10.00;3.45;;;;;;;18.52;49.26;100829.94;4992913;28;20045;-72
2023/06/16 07:58:24;;;;;;;5.47;3.08;;;;;;;18.67;50.17;100826.06;4993151;28;20045;-72
2023/06/16 08:01:52;;;;;;;8.13;3.38;;;;;;;18.65;49.27;100825.34;4992934;28;20089;-71
2023/06/16 08:05:01;;;;;;;11.55;3.13;;;;;;;18.98;47.55;100812.97;4993015;28;20038;-71
2023/06/16 08:08:04;;;;;;;9.40;3.45;;;;;;;18.89;47.37;100819.00;4992476;28;20065;-71
2023/06/16 08:11:08;;;;;;;11.52;3.03;;;;;;;18.87;47.14;100815.66;4993108;28;20077;-72
2023/06/16 08:14:11;;;;;;;6.68;3.15;;;;;;;18.99;47.10;100818.16;4996520;28;20141;-72
2023/06/16 08:17:15;;;;;;;3.53;2.72;;;;;;;19.10;47.16;100806.63;4996481;28;20049;-71
2023/06/16 08:20:22;;;;;;;9.90;3.90;;;;;;;19.35;45.70;100807.25;4996241;28;20061;-71
2023/06/16 08:23:26;;;;;;;9.15;3.42;;;;;;;19.34;46.40;100798.44;4996429;28;20149;-71
2023/06/16 08:26:31;;;;;;;6.78;3.20;;;;;;;19.37;45.98;100797.31;4996521;28;20412;-71
2023/06/16 08:29:35;;;;;;;7.68;3.10;;;;;;;19.54;45.12;100795.91;4996024;28;20482;-72
2023/06/16 08:32:38;;;;;;;7.72;3.17;;;;;;;19.61;45.69;100781.97;4996098;28;20053;-72
2023/06/16 08:35:42;;;;;;;8.43;3.13;;;;;;;19.73;45.77;100788.91;4995975;28;20042;-72
2023/06/16 08:38:48;;;;;;;9.15;3.80;;;;;;;20.01;43.44;100791.81;4996123;28;20587;-72
2023/06/16 08:41:54;;;;;;;9.13;3.42;;;;;;;20.27;43.73;100786.03;4996070;28;20084;-71
2023/06/16 08:45:05;;;;;;;9.93;3.95;;;;;;;20.27;44.68;100780.72;4996304;28;20053;-76
2023/06/16 08:48:11;;;;;;;5.55;3.05;;;;;;;20.36;43.72;100785.19;4996414;28;20475;-71
2023/06/16 08:51:16;;;;;;;7.05;3.30;;;;;;;20.32;43.28;100783.78;4995758;28;20046;-70
2023/06/16 08:54:20;;;;;;;6.40;2.75;;;;;;;20.30;42.64;100775.13;4995736;28;20057;-70
2023/06/16 08:57:26;;;;;;;5.20;3.20;;;;;;;20.55;42.70;100764.00;4995895;28;20060;-71
2023/06/16 09:00:34;;;;;;;5.97;3.03;;;;;;;20.61;42.92;100773.22;4984173;28;20530;-70
2023/06/16 09:03:37;;;;;;;9.02;3.28;;;;;;;20.60;42.91;100768.88;4995739;28;20049;-72
2023/06/16 09:06:45;;;;;;;7.15;3.03;;;;;;;20.81;44.08;100774.09;4995708;28;20160;-72
2023/06/16 09:09:49;;;;;;;8.18;3.22;;;;;;;20.82;42.52;100773.09;4983681;28;20116;-73
2023/06/16 09:12:53;;;;;;;6.72;3.63;;;;;;;20.97;42.80;100760.22;4983314;28;20061;-70
2023/06/16 09:15:59;;;;;;;7.63;3.28;;;;;;;20.92;42.71;100757.13;4995604;28;20049;-71
2023/06/16 09:19:09;;;;;;;9.82;3.10;;;;;;;20.84;42.67;100763.16;4995845;28;20130;-73
2023/06/16 09:22:18;;;;;;;6.93;3.25;;;;;;;21.03;41.39;100759.66;4994950;28;20049;-79
2023/06/16 09:25:23;;;;;;;7.70;3.13;;;;;;;21.00;41.98;100754.63;4995182;28;20053;-70
2023/06/16 09:28:34;;;;;;;7.13;3.00;;;;;;;21.16;40.27;100757.53;4995458;28;20193;-71
2023/06/16 09:31:37;;;;;;;9.35;3.03;;;;;;;21.23;39.52;100768.44;4994930;28;20053;-71
2023/06/16 09:34:43;;;;;;;7.22;3.10;;;;;;;21.24;39.83;100760.28;4986489;28;20566;-72
2023/06/16 09:38:00;;;;;;;7.40;3.10;;;;;;;21.30;38.93;100759.72;4977424;28;20566;-81
2023/06/16 09:41:16;;;;;;;5.38;2.80;;;;;;;21.71;37.76;100746.19;4975609;28;20046;-72
2023/06/16 09:44:27;;;;;;;5.03;3.20;;;;;;;21.75;38.66;100745.72;4975488;28;20088;-73
2023/06/16 09:47:31;;;;;;;6.50;3.22;;;;;;;22.27;37.32;100737.19;4975902;28;20045;-72
2023/06/16 09:50:36;;;;;;;7.07;3.30;;;;;;;22.16;37.08;100730.25;4975194;28;20049;-77
2023/06/16 09:53:41;;;;;;;6.90;4.72;;;;;;;22.40;38.86;100727.03;4975340;28;20069;-77
2023/06/16 09:56:45;;;;;;;6.80;2.95;;;;;;;22.23;37.11;100735.81;4975407;28;20114;-68
2023/06/16 09:59:48;;;;;;;6.55;3.38;;;;;;;22.25;37.47;100739.19;4975288;28;20045;-70
2023/06/16 10:02:53;;;;;;;5.80;3.30;;;;;;;22.60;36.46;100733.03;4975325;28;20105;-69
2023/06/16 10:05:57;;;;;;;5.07;2.50;;;;;;;22.50;36.48;100727.78;4972544;28;20050;-75
2023/06/16 10:09:01;;;;;;;5.93;3.30;;;;;;;22.51;36.58;100721.44;4972988;28;20459;-76
2023/06/16 10:12:06;;;;;;;5.07;2.85;;;;;;;;;;4972938;28;20050;-76
2023/06/16 10:15:15;;;;;;;4.90;2.97;;;;;;;22.28;36.33;100725.56;4973430;28;20053;-76
2023/06/16 10:18:20;;;;;;;5.38;3.25;;;;;;;22.54;37.73;100730.97;4973847;28;20056;-76
2023/06/16 10:21:26;;;;;;;5.35;3.20;;;;;;;22.74;37.56;100715.63;4974314;28;20115;-76
2023/06/16 10:24:30;;;;;;;4.40;3.05;;;;;;;22.65;37.11;100711.22;4974791;28;20125;-76
2023/06/16 10:27:39;;;;;;;9.98;3.03;;;;;;;22.76;34.74;100713.66;4974844;28;20049;-76
2023/06/16 10:30:44;;;;;;;10.35;3.22;;;;;;;22.87;35.56;100713.41;4974585;28;20150;-76
2023/06/16 10:33:55;;;;;;;7.72;3.22;;;;;;;23.24;35.28;100706.19;4973683;28;20518;-76
2023/06/16 10:37:01;;;;;;;6.18;3.30;;;;;;;23.47;35.30;100698.47;4975024;28;20122;-76
2023/06/16 10:40:12;;;;;;;5.40;2.45;;;;;;;23.49;35.08;100702.66;4974608;28;20045;-76
2023/06/16 10:43:25;;;;;;;9.52;3.30;;;;;;;23.30;34.81;100701.06;4974523;28;20062;-76
2023/06/16 10:46:28;;;;;;;9.65;3.65;;;;;;;22.96;34.78;100701.84;4974506;28;20105;-76
2023/06/16 10:49:31;;;;;;;4.28;2.78;;;;;;;23.06;36.04;100700.91;4973677;28;20126;-78
2023/06/16 10:52:51;;;;;;;6.55;2.95;;;;;;;23.04;36.15;100700.22;4974700;28;20046;-78
2023/06/16 10:56:05;;;;;;;4.82;2.97;;;;;;;23.25;36.68;100689.19;4974255;28;20052;-79
2023/06/16 10:59:15;;;;;;;4.32;3.00;;;;;;;23.24;34.67;100693.69;4974362;28;20371;-75
2023/06/16 11:02:22;;;;;;;5.43;2.80;;;;;;;23.38;34.40;100689.56;4974213;28;20049;-75
2023/06/16 11:05:48;;;;;;;4.00;2.78;;;;;;;23.40;34.63;100690.28;4974659;28;20534;-75
2023/06/16 11:08:53;;;;;;;4.45;3.35;;;;;;;23.36;34.04;100687.09;4974003;28;20053;-75
2023/06/16 11:12:00;;;;;;;5.18;2.97;;;;;;;23.28;33.93;100687.03;4973360;28;20073;-76
2023/06/16 11:15:04;;;;;;;6.93;3.00;;;;;;;23.14;33.79;100692.97;4973628;28;20149;-75
2023/06/16 11:18:08;;;;;;;6.63;3.28;;;;;;;23.14;33.88;100679.63;4974132;28;20085;-74
2023/06/16 11:21:11;;;;;;;8.20;3.40;;;;;;;23.29;33.71;100680.69;4973844;28;20046;-74
2023/06/16 11:24:15;;;;;;;6.88;2.80;;;;;;;23.25;33.55;100676.69;4973947;28;20041;-74
2023/06/16 11:27:20;;;;;;;6.05;2.85;;;;;;;23.33;34.71;100671.41;4974251;28;20074;-75
2023/06/16 11:30:24;;;;;;;4.70;3.15;;;;;;;23.41;33.20;100668.75;4973919;28;20165;-73
2023/06/16 11:33:30;;;;;;;5.03;3.22;;;;;;;23.44;33.01;100673.75;4973769;28;20049;-72
2023/06/16 11:36:34;;;;;;;4.70;2.80;;;;;;;23.74;32.90;100676.06;4973538;28;20115;-75
2023/06/16 11:39:43;;;;;;;6.75;3.45;;;;;;;23.73;32.84;100667.22;4973707;28;20050;-75
2023/06/16 11:43:00;;;;;;;7.95;2.95;;;;;;;23.74;33.87;100673.41;4973718;28;20053;-76
2023/06/16 11:46:06;;;;;;;5.20;3.05;;;;;;;24.06;32.94;100665.50;4976105;28;20140;-74
2023/06/16 11:49:11;;;;;;;7.20;3.38;;;;;;;24.25;31.84;100666.16;4977431;28;20097;-76
2023/06/16 11:52:15;;;;;;;5.50;3.10;;;;;;;24.27;31.92;100666.84;4978031;28;20162;-76
2023/06/16 11:55:19;;;;;;;4.57;2.90;;;;;;;24.23;32.81;100669.00;4977328;28;20133;-74
2023/06/16 11:58:52;;;;;;;4.57;2.88;;;;;;;24.38;33.06;100658.50;4977384;28;20061;-74
2023/06/16 12:02:03;;;;;;;4.55;3.15;;;;;;;24.17;31.67;100664.31;4994805;28;20046;-73
2023/06/16 12:05:27;;;;;;;4.40;3.10;;;;;;;24.26;31.93;100660.66;4997107;28;20057;-73
2023/06/16 12:08:42;;;;;;;5.43;3.42;;;;;;;24.41;32.60;100649.31;4996957;28;20053;-73
2023/06/16 12:11:46;;;;;;;4.53;2.90;;;;;;;24.40;31.75;100663.69;4996697;28;20053;-73
2023/06/16 12:14:50;;;;;;;8.50;2.85;;;;;;;24.28;33.24;100656.00;4996629;28;20104;-71
2023/06/16 12:17:56;;;;;;;6.65;3.58;;;;;;;24.54;33.61;100639.00;4984630;28;20057;-71
2023/06/16 12:21:35;;;;;;;7.20;3.00;;;;;;;24.78;32.66;100646.13;4996467;28;20053;-70
2023/06/16 12:24:40;;;;;;;6.10;2.75;;;;;;;24.96;32.33;100632.56;4902615;28;20114;-74
2023/06/16 12:27:49;;;;;;;5.25;2.33;;;;;;;25.13;32.04;100634.22;4996321;28;20061;-72
2023/06/16 12:30:59;;;;;;;4.53;2.80;;;;;;;25.25;32.04;100627.47;4996294;28;20126;-73
2023/06/16 12:34:02;;;;;;;5.82;2.78;;;;;;;25.25;30.95;100619.44;4996371;28;20049;-73
2023/06/16 12:37:10;;;;;;;5.53;2.65;;;;;;;25.45;31.09;100621.69;4983928;28;20037;-74
2023/06/16 12:43:48;;;;;;;8.38;3.08;;;;;;;25.88;31.46;100620.31;4994516;28;20053;-74
2023/06/16 12:46:52;;;;;;;4.22;3.03;;;;;;;26.11;31.19;100617.66;4995769;28;20045;-75
2023/06/16 12:49:56;;;;;;;4.70;2.90;;;;;;;25.98;29.99;100622.78;4996128;28;20514;-75
2023/06/16 12:53:00;;;;;;;6.18;3.00;;;;;;;25.31;30.82;100630.47;4996188;28;20119;-75
2023/06/16 12:56:04;;;;;;;4.78;2.92;;;;;;;25.11;31.64;100622.84;4995908;28;20157;-74
2023/06/16 12:59:10;;;;;;;6.18;2.95;;;;;;;25.08;32.72;100625.84;4995537;28;20582;-74
2023/06/16 13:02:15;;;;;;;5.50;2.97;;;;;;;25.29;31.16;100623.44;4996152;28;20057;-73
2023/06/16 13:05:21;;;;;;;4.82;2.90;;;;;;;25.79;31.43;100618.69;4995765;28;20053;-74
2023/06/16 13:08:30;;;;;;;6.68;3.03;;;;;;;26.14;28.56;100617.28;4994965;28;20083;-74
2023/06/16 13:11:44;;;;;;;6.43;2.83;;;;;;;26.18;28.11;100615.91;4983179;28;20096;-75
2023/06/16 13:14:59;;;;;;;5.35;3.35;;;;;;;25.85;31.75;100622.53;4995298;28;20088;-70
2023/06/16 13:18:05;;;;;;;5.82;3.10;;;;;;;25.48;31.21;100611.47;4983170;28;20536;-71
2023/06/16 13:21:09;;;;;;;11.00;3.38;;;;;;;26.00;31.66;100604.66;4997217;28;20531;-71
2023/06/16 13:24:22;;;;;;;7.38;3.28;;;;;;;26.32;31.56;100597.38;5000437;28;20109;-73
2023/06/16 13:27:37;;;;;;;4.70;3.00;;;;;;;26.71;30.00;100599.88;5001186;28;20038;-73
2023/06/16 13:30:40;;;;;;;4.15;2.40;;;;;;;27.07;28.94;100586.56;5003185;28;20446;-73
2023/06/16 13:33:43;;;;;;;5.43;2.50;;;;;;;27.41;29.35;100590.53;5000343;28;20148;-71
2023/06/16 13:36:54;;;;;;;8.98;3.42;;;;;;;27.31;27.69;100588.13;4999835;28;20056;-71
2023/06/16 13:39:58;;;;;;;6.60;3.38;;;;;;;27.04;27.85;100586.91;4989847;28;20085;-71
2023/06/16 13:43:02;;;;;;;4.80;3.25;;;;;;;27.10;27.64;100583.50;4996209;28;20412;-70
2023/06/16 13:46:07;;;;;;;6.25;3.40;;;;;;;27.30;26.78;100582.94;5004732;28;20045;-71
2023/06/16 13:49:11;;;;;;;4.95;3.20;;;;;;;27.70;26.70;100575.34;4997275;28;20560;-70
2023/06/16 13:52:15;;;;;;;4.50;3.03;;;;;;;27.85;26.78;100567.25;5001659;28;20045;-70
2023/06/16 13:55:18;;;;;;;4.00;2.78;;;;;;;28.19;25.94;100564.66;5002544;28;20045;-71
2023/06/16 13:58:26;;;;;;;7.85;3.20;;;;;;;27.89;26.39;100564.00;5000169;28;20124;-74
2023/06/16 14:01:30;;;;;;;6.72;3.22;;;;;;;27.39;27.79;100571.06;5004812;28;20040;-70
2023/06/16 14:04:33;;;;;;;5.63;3.25;;;;;;;27.07;27.56;100581.19;4997909;28;20056;-72
2023/06/16 14:07:36;;;;;;;6.43;3.30;;;;;;;27.75;28.47;100567.53;5000983;28;20037;-71
2023/06/16 14:10:40;;;;;;;5.78;2.92;;;;;;;28.59;26.04;100577.59;5001281;28;20125;-72
2023/06/16 14:13:44;;;;;;;8.63;3.22;;;;;;;28.17;25.71;100563.19;5002688;28;20118;-73
2023/06/16 14:16:50;;;;;;;4.63;3.40;;;;;;;28.38;25.23;100559.63;4998102;28;20100;-74
2023/06/16 14:19:54;;;;;;;9.40;3.10;;;;;;;27.44;24.83;100565.13;5001658;28;20576;-73
2023/06/16 14:22:58;;;;;;;7.35;3.08;;;;;;;27.35;25.77;100556.38;4993955;28;20049;-76
2023/06/16 14:26:01;;;;;;;4.13;2.80;;;;;;;29.63;23.54;100550.56;4994109;28;20511;-75
2023/06/16 14:29:04;;;;;;;3.92;2.75;;;;;;;31.53;20.12;100527.19;4989033;28;20061;-74
2023/06/16 14:32:07;;;;;;;7.88;2.80;;;;;;;32.79;19.53;100539.59;4994020;28;20165;-75